Terminal Aerodrome Forecast
Issued by NWS Huntsville, AL

Home | Current Version | Previous Version | Text Only | Print | Product List | Glossary On
Versions: 1 2 3 4 5 6 7 8 9 10 11 12 13 14 15 16 17
000
FTUS44 KHUN 301725
TAFHSV
TAF
KHSV 301725Z 3018/3118 25007KT P6SM -SHRA VCTS SCT020 BKN035CB
     FM301900 25008KT 3SM -TSRA SCT009 BKN020 BKN035CB
      TEMPO 3019/3020 29015G20KT 1SM TSRA BR BKN005 BKN035CB
     FM302000 26008KT P6SM VCSH SCT050 BKN250
     FM310100 VRB03KT P6SM SCT050 SCT250
     FM310900 VRB03KT 3SM BR FEW250=

USA.gov is the U.S. government's official web portal to all federal, state and local government web resources and services.